Time;durP1;ratioP1;P1;durP2;ratioP2;P2;SDS_P1;SDS_P2;PMS_P1;PMS_P2;Temp;Humidity;BMP_temperature;BMP_pressure;BME280_temperature;BME280_humidity;BME280_pressure;Samples;Min_cycle;Max_cycle;Signal;HPM_P1;HPM_P2
2022/12/28 00:02:26;;;;;;;6.45;2.33;;;4.70;99.90;;;;;;7408468;19;19919;-67
2022/12/28 00:04:57;;;;;;;4.78;2.30;;;4.90;99.90;;;;;;7408362;19;19921;-67
2022/12/28 00:07:26;;;;;;;7.43;2.10;;;5.20;99.90;;;;;;7408594;19;20272;-67
2022/12/28 00:09:55;;;;;;;3.80;2.20;;;4.10;99.90;;;;;;7412041;19;20290;-67
2022/12/28 00:12:24;;;;;;;6.45;2.15;;;4.10;99.90;;;;;;7408713;19;19922;-66
2022/12/28 00:14:53;;;;;;;7.25;2.58;;;3.50;99.90;;;;;;7408796;19;19915;-66
2022/12/28 00:17:22;;;;;;;6.97;2.30;;;4.20;99.90;;;;;;7406698;19;19935;-66
2022/12/28 00:19:52;;;;;;;4.32;2.00;;;4.50;99.90;;;;;;7408482;19;19914;-66
2022/12/28 00:22:29;;;;;;;7.20;2.20;;;4.10;99.90;;;;;;7408621;19;19970;-66
2022/12/28 00:25:00;;;;;;;5.05;1.95;;;4.30;99.90;;;;;;7407755;19;19982;-67
2022/12/28 00:27:29;;;;;;;5.18;2.83;;;4.60;99.90;;;;;;7408435;19;19966;-66
2022/12/28 00:29:58;;;;;;;7.13;2.50;;;4.10;99.90;;;;;;7408156;19;19910;-66
2022/12/28 00:32:28;;;;;;;2.85;1.73;;;4.10;99.90;;;;;;7407560;19;19933;-67
2022/12/28 00:34:59;;;;;;;8.20;2.25;;;4.10;99.90;;;;;;7406375;19;19942;-67
2022/12/28 00:37:31;;;;;;;5.97;2.67;;;4.10;99.90;;;;;;7407876;19;19914;-67
2022/12/28 00:40:00;;;;;;;6.60;2.25;;;4.20;99.90;;;;;;7409174;19;19919;-67
2022/12/28 00:42:29;;;;;;;6.22;2.55;;;4.10;99.90;;;;;;7407850;19;19919;-66
2022/12/28 00:44:58;;;;;;;5.90;2.15;;;5.00;99.90;;;;;;7407379;19;19911;-66
2022/12/28 00:47:27;;;;;;;6.70;2.42;;;4.90;99.90;;;;;;7405378;19;19915;-66
2022/12/28 00:49:59;;;;;;;5.53;1.88;;;4.00;99.90;;;;;;7407622;19;20289;-66
2022/12/28 00:52:33;;;;;;;3.05;2.38;;;4.10;99.90;;;;;;7407084;19;19962;-67
2022/12/28 00:55:02;;;;;;;6.30;2.33;;;4.90;99.90;;;;;;7408037;19;19910;-66
2022/12/28 00:57:39;;;;;;;5.50;2.33;;;3.90;99.90;;;;;;7407062;19;20353;-66
2022/12/28 01:00:10;;;;;;;9.18;2.55;;;4.00;99.90;;;;;;7407601;19;19911;-66
2022/12/28 01:02:39;;;;;;;5.97;3.15;;;4.30;99.90;;;;;;7406893;19;19921;-66
2022/12/28 01:05:09;;;;;;;7.20;2.30;;;4.10;99.90;;;;;;7406788;19;20321;-66
2022/12/28 01:07:41;;;;;;;7.43;2.80;;;4.00;99.90;;;;;;7409550;19;19996;-66
2022/12/28 01:10:11;;;;;;;7.25;2.72;;;3.80;99.90;;;;;;7406013;19;19914;-67
2022/12/28 01:12:40;;;;;;;7.18;2.42;;;4.00;99.90;;;;;;7406626;19;19922;-66
2022/12/28 01:15:12;;;;;;;5.40;2.15;;;4.60;99.90;;;;;;7407607;19;19915;-66
2022/12/28 01:17:41;;;;;;;5.60;2.45;;;3.90;99.90;;;;;;7406719;19;19919;-66
2022/12/28 01:20:11;;;;;;;6.38;2.65;;;4.00;99.90;;;;;;7407246;19;19918;-66
2022/12/28 01:22:43;;;;;;;5.30;2.30;;;4.10;99.90;;;;;;7406308;19;19918;-66
2022/12/28 01:25:12;;;;;;;5.90;2.70;;;5.00;99.90;;;;;;7406417;19;19942;-66
2022/12/28 01:27:41;;;;;;;5.22;2.53;;;4.30;99.90;;;;;;7406244;19;19915;-66
2022/12/28 01:30:16;;;;;;;6.68;2.17;;;3.20;99.90;;;;;;7406085;19;19914;-66
2022/12/28 01:32:45;;;;;;;4.80;2.05;;;5.10;99.90;;;;;;7406434;19;19914;-66
2022/12/28 01:35:14;;;;;;;8.30;2.63;;;4.30;99.90;;;;;;7404476;19;19994;-67
2022/12/28 01:37:46;;;;;;;4.07;1.88;;;4.30;99.90;;;;;;7406250;19;19918;-67
2022/12/28 01:40:17;;;;;;;5.35;2.33;;;4.20;99.90;;;;;;7410342;19;19933;-66
2022/12/28 01:42:46;;;;;;;6.53;2.33;;;4.80;99.90;;;;;;7409883;19;19915;-67
2022/12/28 01:45:20;;;;;;;6.97;2.30;;;4.20;99.90;;;;;;7405375;19;19918;-67
2022/12/28 01:47:51;;;;;;;7.20;2.40;;;4.10;99.90;;;;;;7405896;19;19928;-66
2022/12/28 01:50:25;;;;;;;5.85;2.20;;;4.60;99.90;;;;;;7405877;19;20372;-66
2022/12/28 01:52:59;;;;;;;4.50;2.65;;;4.80;99.90;;;;;;7405638;19;19950;-67
2022/12/28 01:55:31;;;;;;;6.38;2.10;;;4.80;99.90;;;;;;7406058;19;19918;-67
2022/12/28 01:58:05;;;;;;;5.22;2.35;;;4.10;99.90;;;;;;7405655;19;19921;-67
2022/12/28 02:00:34;;;;;;;7.30;2.97;;;4.60;99.90;;;;;;7405739;19;19956;-67
2022/12/28 02:03:08;;;;;;;4.97;2.70;;;4.80;99.90;;;;;;7405157;19;19911;-67
2022/12/28 02:05:58;;;;;;;8.30;2.42;;;4.20;99.90;;;;;;7404623;19;19923;-66
2022/12/28 02:08:34;;;;;;;4.78;2.70;;;3.80;99.90;;;;;;7408499;19;20340;-67
2022/12/28 02:11:03;;;;;;;5.47;2.33;;;4.20;99.90;;;;;;7405031;19;20340;-66
2022/12/28 02:13:33;;;;;;;7.22;3.00;;;4.90;99.90;;;;;;7405507;19;20321;-67
2022/12/28 02:16:03;;;;;;;6.57;2.72;;;4.30;99.90;;;;;;7405114;19;19911;-67
2022/12/28 02:18:43;;;;;;;8.40;3.80;;;4.20;99.90;;;;;;7405657;19;19939;-66
2022/12/28 02:21:31;;;;;;;10.75;3.35;;;4.90;99.90;;;;;;7402476;19;19914;-67
2022/12/28 02:24:24;;;;;;;9.60;2.95;;;4.60;99.90;;;;;;7405016;19;19911;-67
2022/12/28 02:26:58;;;;;;;6.53;3.05;;;4.20;99.90;;;;;;7403679;19;19918;-67
2022/12/28 02:29:58;;;;;;;6.05;2.13;;;4.20;99.90;;;;;;7404948;19;20242;-67
2022/12/28 02:32:42;;;;;;;6.43;2.85;;;4.30;99.90;;;;;;7403897;19;19918;-66
2022/12/28 02:35:19;;;;;;;7.70;3.03;;;4.10;99.90;;;;;;7403987;19;20257;-66
2022/12/28 02:37:50;;;;;;;6.95;2.42;;;5.40;99.90;;;;;;7408924;19;19923;-65
2022/12/28 02:40:23;;;;;;;4.88;2.60;;;4.30;99.90;;;;;;7406935;19;19914;-67
2022/12/28 02:42:54;;;;;;;6.60;2.30;;;4.90;99.90;;;;;;7405479;19;19928;-66
2022/12/28 02:51:31;;;;;;;5.65;2.55;;;5.20;99.90;;;;;;7402678;19;19932;-67
2022/12/28 02:57:27;;;;;;;6.28;2.58;;;4.40;99.90;;;;;;7404455;19;19974;-66
2022/12/28 03:00:06;;;;;;;9.02;3.55;;;5.10;99.90;;;;;;7404224;19;19913;-66
2022/12/28 03:03:01;;;;;;;4.93;2.60;;;3.30;99.90;;;;;;7401860;19;19910;-66
2022/12/28 03:08:31;;;;;;;6.03;3.15;;;3.80;99.90;;;;;;7404500;19;19930;-66
2022/12/28 03:11:06;;;;;;;6.55;2.65;;;4.40;99.90;;;;;;7403372;19;19919;-67
2022/12/28 03:13:44;;;;;;;7.93;3.53;;;5.30;99.90;;;;;;7403843;19;19935;-67
2022/12/28 03:16:20;;;;;;;5.72;3.10;;;4.10;99.90;;;;;;7403372;19;19974;-67
2022/12/28 03:32:35;;;;;;;5.75;2.83;;;3.90;99.90;;;;;;7412681;19;19911;-66
2022/12/28 03:35:05;;;;;;;4.88;2.83;;;4.20;99.90;;;;;;7416288;19;19918;-67
2022/12/28 03:37:44;;;;;;;6.97;3.03;;;4.30;99.90;;;;;;7417546;19;19946;-66
2022/12/28 03:40:23;;;;;;;5.00;2.90;;;5.10;99.90;;;;;;7416891;19;19926;-66
2022/12/28 03:45:42;;;;;;;6.00;2.60;;;4.30;99.90;;;;;;7416559;19;19910;-67
2022/12/28 03:48:13;;;;;;;4.90;2.67;;;4.30;99.90;;;;;;7416629;19;20220;-67
2022/12/28 03:50:45;;;;;;;4.88;2.67;;;4.90;99.90;;;;;;7416568;19;20347;-66
2022/12/28 03:53:19;;;;;;;7.05;2.83;;;4.80;99.90;;;;;;7416848;19;19939;-66
2022/12/28 03:55:48;;;;;;;5.82;2.97;;;4.50;99.90;;;;;;7416987;19;19982;-66
2022/12/28 03:58:18;;;;;;;10.32;3.30;;;5.50;99.90;;;;;;7416427;19;19921;-67
2022/12/28 04:00:47;;;;;;;5.35;3.00;;;4.90;99.90;;;;;;7416046;19;19923;-67
2022/12/28 04:03:16;;;;;;;4.70;2.65;;;4.60;99.90;;;;;;7415814;19;19923;-67
2022/12/28 04:05:45;;;;;;;4.57;2.50;;;4.60;99.90;;;;;;7415916;19;19929;-66
2022/12/28 04:08:16;;;;;;;4.10;2.75;;;5.80;99.90;;;;;;7416801;19;20325;-66
2022/12/28 04:10:45;;;;;;;3.70;2.55;;;5.50;99.90;;;;;;7416330;19;20016;-66
2022/12/28 04:13:14;;;;;;;4.63;2.58;;;4.50;99.90;;;;;;7416454;19;19926;-66
2022/12/28 04:15:44;;;;;;;4.40;2.72;;;4.70;99.90;;;;;;7416294;19;19970;-66
2022/12/28 04:18:13;;;;;;;5.60;3.10;;;4.60;99.90;;;;;;7415942;19;19925;-67
2022/12/28 04:20:41;;;;;;;6.95;3.22;;;4.60;99.90;;;;;;7415592;19;20446;-67
2022/12/28 04:23:11;;;;;;;6.53;2.92;;;4.80;99.90;;;;;;7416484;19;19915;-67
2022/12/28 04:25:42;;;;;;;4.35;2.42;;;4.70;99.90;;;;;;7415681;19;19982;-66
2022/12/28 04:28:11;;;;;;;5.30;2.72;;;4.70;99.90;;;;;;7413132;19;19927;-66
2022/12/28 04:30:40;;;;;;;3.75;2.90;;;4.60;99.90;;;;;;7415904;19;19938;-66
2022/12/28 04:33:12;;;;;;;4.35;2.53;;;5.60;99.90;;;;;;7414843;19;19925;-66
2022/12/28 04:35:41;;;;;;;3.22;2.50;;;4.60;99.90;;;;;;7413523;19;20336;-66
2022/12/28 04:38:09;;;;;;;4.32;2.10;;;4.90;99.90;;;;;;7419485;19;19920;-67
2022/12/28 04:40:38;;;;;;;5.28;2.72;;;4.80;99.90;;;;;;7415239;19;20317;-66
2022/12/28 04:43:10;;;;;;;5.15;2.50;;;4.80;99.90;;;;;;7411068;19;19915;-67
2022/12/28 04:45:39;;;;;;;;;;;5.60;99.90;;;;;;7409217;19;19911;-67
2022/12/28 04:48:09;;;;;;;4.82;2.40;;;4.90;99.90;;;;;;7405208;19;20272;-67
2022/12/28 04:50:38;;;;;;;4.40;2.40;;;4.70;99.90;;;;;;7408128;19;19978;-67
2022/12/28 04:53:07;;;;;;;2.88;2.00;;;4.80;99.90;;;;;;7407396;19;20268;-66
2022/12/28 04:55:39;;;;;;;2.72;1.95;;;4.90;99.90;;;;;;7407589;19;20337;-66
2022/12/28 04:58:11;;;;;;;3.63;2.13;;;5.00;99.90;;;;;;7407507;19;19930;-66
2022/12/28 05:00:40;;;;;;;3.33;1.70;;;5.70;99.90;;;;;;7407575;19;19918;-67
2022/12/28 05:03:09;;;;;;;3.65;2.33;;;5.10;99.90;;;;;;7406671;19;20264;-66
2022/12/28 05:05:39;;;;;;;2.28;1.80;;;4.90;99.90;;;;;;7409309;19;20344;-67
2022/12/28 05:08:08;;;;;;;2.35;1.73;;;5.00;99.90;;;;;;7405215;19;19918;-66
2022/12/28 05:10:37;;;;;;;3.47;2.00;;;5.40;99.90;;;;;;7406990;19;19925;-66
2022/12/28 05:13:13;;;;;;;3.25;1.92;;;4.80;99.90;;;;;;7406820;19;19915;-66
2022/12/28 05:15:42;;;;;;;2.65;2.00;;;5.00;99.90;;;;;;7407424;19;19921;-66
2022/12/28 05:18:11;;;;;;;2.92;2.20;;;4.90;99.90;;;;;;7407333;19;19914;-66
2022/12/28 05:20:40;;;;;;;2.88;1.67;;;5.10;99.90;;;;;;7406993;19;20002;-65
2022/12/28 05:23:09;;;;;;;2.40;1.40;;;5.00;99.90;;;;;;7406563;19;19921;-66
2022/12/28 05:25:38;;;;;;;3.70;2.00;;;5.30;99.90;;;;;;7406718;19;20362;-66
2022/12/28 05:28:07;;;;;;;4.38;1.60;;;5.70;99.90;;;;;;7404887;19;19915;-67
2022/12/28 05:30:43;;;;;;;5.82;1.92;;;5.00;99.90;;;;;;7406867;19;19918;-66
2022/12/28 05:33:12;;;;;;;2.38;2.00;;;4.90;99.90;;;;;;7406044;19;20332;-67
2022/12/28 05:35:47;;;;;;;3.47;2.10;;;4.70;99.90;;;;;;7407068;19;19928;-67
2022/12/28 05:38:16;;;;;;;4.85;1.77;;;5.50;99.90;;;;;;7405963;19;19974;-67
2022/12/28 05:40:45;;;;;;;3.47;1.60;;;5.50;99.90;;;;;;7406227;19;19919;-67
2022/12/28 05:43:14;;;;;;;3.28;1.70;;;5.20;99.90;;;;;;7405969;19;19935;-67
2022/12/28 05:45:47;;;;;;;2.33;1.63;;;5.70;99.90;;;;;;7405326;19;19922;-67
2022/12/28 05:48:16;;;;;;;2.72;2.00;;;5.20;99.90;;;;;;7404469;19;20256;-67
2022/12/28 05:50:46;;;;;;;2.70;1.90;;;5.20;99.90;;;;;;7406163;19;19911;-67
2022/12/28 05:53:15;;;;;;;2.40;1.73;;;5.40;99.90;;;;;;7406246;19;19914;-66
2022/12/28 05:55:50;;;;;;;3.30;2.10;;;5.20;99.90;;;;;;7405546;19;19922;-67
2022/12/28 05:58:19;;;;;;;2.63;2.08;;;6.00;99.90;;;;;;7405965;19;19922;-67
2022/12/28 06:00:51;;;;;;;2.83;1.90;;;5.30;99.90;;;;;;7405833;19;20336;-67
2022/12/28 06:03:20;;;;;;;2.95;2.20;;;5.50;99.90;;;;;;7405614;19;19921;-66
2022/12/28 06:05:49;;;;;;;3.30;2.33;;;5.40;99.90;;;;;;7406038;19;19924;-66
2022/12/28 06:08:18;;;;;;;1.75;1.58;;;6.10;99.90;;;;;;7404430;19;19915;-66
2022/12/28 06:10:47;;;;;;;3.17;2.17;;;5.50;99.90;;;;;;7404996;19;19925;-66
2022/12/28 06:13:16;;;;;;;3.03;2.10;;;5.50;99.90;;;;;;7405460;19;19922;-66
2022/12/28 06:15:45;;;;;;;3.55;2.38;;;5.60;99.90;;;;;;7409422;19;19918;-66
2022/12/28 06:18:16;;;;;;;2.40;2.00;;;5.60;99.90;;;;;;7405134;19;19919;-67
2022/12/28 06:20:45;;;;;;;3.53;2.28;;;5.60;99.90;;;;;;7404940;19;19911;-67
2022/12/28 06:23:14;;;;;;;2.40;1.98;;;6.60;99.90;;;;;;7403287;19;19991;-67
2022/12/28 06:25:43;;;;;;;3.28;2.17;;;5.70;99.90;;;;;;7405079;19;20292;-67
2022/12/28 06:28:12;;;;;;;3.08;2.30;;;5.50;99.90;;;;;;7403441;19;20614;-67
2022/12/28 06:30:41;;;;;;;4.68;2.47;;;5.60;99.90;;;;;;7405085;19;19915;-67
2022/12/28 06:33:11;;;;;;;3.40;2.40;;;6.10;99.90;;;;;;7405075;19;19914;-67
2022/12/28 06:35:45;;;;;;;3.47;2.65;;;5.70;99.90;;;;;;7403608;19;19940;-67
2022/12/28 06:38:14;;;;;;;4.30;2.50;;;6.80;99.90;;;;;;7404522;19;19918;-68
2022/12/28 06:40:43;;;;;;;3.92;2.15;;;5.80;99.90;;;;;;7404772;19;19915;-66
2022/12/28 06:43:12;;;;;;;2.95;2.28;;;5.60;99.90;;;;;;7404768;19;19928;-67
2022/12/28 06:45:56;;;;;;;3.83;2.63;;;6.50;99.90;;;;;;7403523;19;19943;-66
2022/12/28 06:48:25;;;;;;;;;;;6.00;99.90;;;;;;7405716;19;19922;-67
2022/12/28 06:51:02;;;;;;;2.95;2.25;;;5.80;99.90;;;;;;7404542;19;19911;-66
2022/12/28 06:53:35;;;;;;;3.90;2.50;;;5.80;99.90;;;;;;7404081;19;19938;-66
2022/12/28 06:56:08;;;;;;;4.32;2.85;;;5.70;99.90;;;;;;7404006;19;19954;-66
2022/12/28 06:58:39;;;;;;;3.58;2.83;;;5.80;99.90;;;;;;7403886;19;19944;-66
2022/12/28 07:01:09;;;;;;;3.85;2.70;;;6.80;99.90;;;;;;7404161;19;19915;-66
2022/12/28 07:03:38;;;;;;;3.45;2.33;;;5.80;99.90;;;;;;7403144;19;19922;-66
2022/12/28 07:06:09;;;;;;;3.95;2.47;;;5.90;99.90;;;;;;7406293;19;20320;-66
2022/12/28 07:08:39;;;;;;;4.75;2.67;;;5.90;99.90;;;;;;7402135;19;19921;-66
2022/12/28 07:11:17;;;;;;;5.22;2.75;;;6.00;99.90;;;;;;7403431;19;20348;-66
2022/12/28 07:13:47;;;;;;;3.70;2.70;;;6.00;99.90;;;;;;7403869;19;19918;-66
2022/12/28 07:16:17;;;;;;;4.40;3.00;;;6.10;99.90;;;;;;7403270;19;19914;-67
2022/12/28 07:18:47;;;;;;;4.07;2.88;;;6.10;99.90;;;;;;7403190;19;19932;-66
2022/12/28 07:21:21;;;;;;;4.93;2.92;;;6.80;99.90;;;;;;7403356;19;19925;-66
2022/12/28 07:23:50;;;;;;;5.28;3.00;;;7.10;99.90;;;;;;7404185;19;19923;-66
2022/12/28 07:26:21;;;;;;;4.68;3.03;;;6.80;99.90;;;;;;7403143;19;19932;-67
2022/12/28 07:28:52;;;;;;;;;;;6.40;99.90;;;;;;7404653;19;19914;-66
2022/12/28 07:31:23;;;;;;;7.18;3.90;;;6.20;99.90;;;;;;7402874;19;19938;-66
2022/12/28 07:33:54;;;;;;;5.95;2.90;;;6.30;99.90;;;;;;7403485;19;19922;-66
2022/12/28 07:36:29;;;;;;;4.10;2.97;;;6.40;99.90;;;;;;7401941;19;20014;-67
2022/12/28 07:39:00;;;;;;;5.18;3.08;;;6.40;99.90;;;;;;7403480;19;19924;-66
2022/12/28 07:41:31;;;;;;;4.80;3.30;;;6.30;99.90;;;;;;7402673;19;19934;-66
2022/12/28 07:44:01;;;;;;;4.43;3.10;;;6.40;99.90;;;;;;7403020;19;20380;-66
2022/12/28 07:46:31;;;;;;;4.00;3.22;;;6.40;99.90;;;;;;7400711;19;19929;-66
2022/12/28 07:49:04;;;;;;;4.15;3.22;;;6.40;99.90;;;;;;7401060;19;19927;-66
2022/12/28 07:51:37;;;;;;;5.13;3.67;;;6.40;99.90;;;;;;7402938;19;20233;-66
2022/12/28 07:54:07;;;;;;;5.03;3.25;;;6.40;99.90;;;;;;7402614;19;20276;-67
2022/12/28 07:56:44;;;;;;;4.18;3.15;;;6.50;99.90;;;;;;7402698;19;20340;-66
2022/12/28 07:59:13;;;;;;;5.47;3.33;;;6.50;99.90;;;;;;7402753;19;19919;-66
2022/12/28 08:01:42;;;;;;;6.45;3.60;;;6.50;99.90;;;;;;7402830;19;19931;-66
2022/12/28 08:04:15;;;;;;;4.85;3.53;;;6.60;99.90;;;;;;7404949;19;19960;-66
2022/12/28 08:06:47;;;;;;;6.55;3.53;;;6.60;99.90;;;;;;7402039;19;19931;-66
2022/12/28 08:09:17;;;;;;;8.60;4.38;;;6.70;99.90;;;;;;7400011;19;20251;-66
2022/12/28 08:11:47;;;;;;;6.50;4.20;;;6.70;99.90;;;;;;7402041;19;19915;-66
2022/12/28 08:14:16;;;;;;;6.15;3.92;;;6.80;99.90;;;;;;7402495;19;19939;-66
2022/12/28 08:16:46;;;;;;;5.97;3.97;;;6.70;99.90;;;;;;7402052;19;19923;-66
2022/12/28 08:19:18;;;;;;;5.97;4.10;;;6.90;99.90;;;;;;7404849;19;19915;-66
2022/12/28 08:21:49;;;;;;;7.25;5.22;;;7.40;99.90;;;;;;7408061;19;19918;-66
2022/12/28 08:24:20;;;;;;;6.65;4.63;;;6.80;99.90;;;;;;7409023;19;19932;-65
2022/12/28 08:26:50;;;;;;;8.18;4.30;;;6.90;99.90;;;;;;7408164;19;19925;-66
2022/12/28 08:29:22;;;;;;;8.23;4.78;;;7.00;99.90;;;;;;7405405;19;19949;-66
2022/12/28 08:31:51;;;;;;;6.38;4.35;;;7.00;99.90;;;;;;7408034;19;19942;-66
2022/12/28 08:34:25;;;;;;;5.55;3.88;;;6.90;99.90;;;;;;7411454;19;19914;-67
2022/12/28 08:36:58;;;;;;;6.05;4.13;;;7.80;99.90;;;;;;7408118;19;20248;-66
2022/12/28 08:39:30;;;;;;;5.47;3.53;;;7.10;99.90;;;;;;7405007;19;19946;-66
2022/12/28 08:41:59;;;;;;;5.30;3.70;;;7.10;99.90;;;;;;7407931;19;19980;-66
2022/12/28 08:44:28;;;;;;;5.53;3.67;;;7.50;99.90;;;;;;7406073;19;19922;-66
2022/12/28 08:46:57;;;;;;;5.85;4.07;;;7.50;99.90;;;;;;7407573;19;19954;-66
2022/12/28 08:49:26;;;;;;;4.68;3.78;;;7.30;99.90;;;;;;7405382;19;20245;-66
2022/12/28 08:51:58;;;;;;;7.03;4.07;;;7.10;99.90;;;;;;7407687;19;19918;-66
2022/12/28 08:54:27;;;;;;;4.43;3.70;;;7.60;99.90;;;;;;7407792;19;19918;-66
2022/12/28 08:56:57;;;;;;;5.88;4.05;;;7.20;99.90;;;;;;7407120;19;20359;-66
2022/12/28 08:59:26;;;;;;;4.50;3.45;;;7.80;99.90;;;;;;7407886;19;19925;-66
2022/12/28 09:01:55;;;;;;;6.07;3.40;;;7.20;99.90;;;;;;7407375;19;19931;-66
2022/12/28 09:04:24;;;;;;;5.43;4.32;;;7.40;99.90;;;;;;7406958;19;20242;-66
2022/12/28 09:06:53;;;;;;;7.90;4.30;;;7.20;99.90;;;;;;7406425;19;19942;-66
2022/12/28 09:09:25;;;;;;;6.25;4.45;;;7.10;99.90;;;;;;7405013;19;19914;-66
2022/12/28 09:11:54;;;;;;;6.30;4.03;;;7.20;99.90;;;;;;7406174;19;19992;-66
2022/12/28 09:14:23;;;;;;;6.55;4.10;;;7.20;99.90;;;;;;7406786;19;20242;-65
2022/12/28 09:16:53;;;;;;;4.63;3.17;;;7.10;99.90;;;;;;7406597;19;20341;-66
2022/12/28 09:19:22;;;;;;;4.50;3.30;;;7.10;99.90;;;;;;7407051;19;19918;-67
2022/12/28 09:21:52;;;;;;;6.63;3.85;;;7.10;99.90;;;;;;7405891;19;19911;-66
2022/12/28 09:24:21;;;;;;;6.75;4.05;;;7.10;99.90;;;;;;7406175;19;19930;-66
2022/12/28 09:26:54;;;;;;;5.75;3.92;;;7.10;99.90;;;;;;7406553;19;19982;-65
2022/12/28 09:29:31;;;;;;;4.47;3.42;;;7.10;99.90;;;;;;7403118;19;19915;-66
2022/12/28 09:32:00;;;;;;;4.80;3.45;;;6.90;99.90;;;;;;7408742;19;19919;-66
2022/12/28 09:34:34;;;;;;;4.68;3.10;;;6.90;99.90;;;;;;7405249;19;20038;-66
2022/12/28 09:37:04;;;;;;;4.47;3.40;;;7.00;99.90;;;;;;7406381;19;19934;-66
2022/12/28 09:39:33;;;;;;;7.20;3.65;;;7.00;99.90;;;;;;7406184;19;19944;-66
2022/12/28 09:42:08;;;;;;;5.55;3.28;;;7.00;99.90;;;;;;7405978;19;19911;-66
2022/12/28 09:44:47;;;;;;;4.82;3.28;;;7.00;99.90;;;;;;7405941;19;20277;-67
2022/12/28 09:47:25;;;;;;;3.03;2.40;;;7.10;99.90;;;;;;7405735;19;19919;-67
2022/12/28 09:50:07;;;;;;;5.15;3.15;;;7.00;99.90;;;;;;7404084;19;19915;-67
2022/12/28 09:52:40;;;;;;;4.95;3.10;;;7.00;99.90;;;;;;7406223;19;19915;-66
2022/12/28 09:55:14;;;;;;;4.03;2.63;;;7.00;99.90;;;;;;7405460;19;20007;-66
2022/12/28 09:57:50;;;;;;;5.20;2.83;;;7.10;99.90;;;;;;7405949;19;20314;-66
2022/12/28 10:00:21;;;;;;;3.83;2.53;;;7.00;99.90;;;;;;7405440;19;19974;-66
2022/12/28 10:02:56;;;;;;;4.35;3.38;;;7.00;99.90;;;;;;7405217;19;19926;-65
2022/12/28 10:05:26;;;;;;;3.92;2.55;;;7.00;99.90;;;;;;7405390;19;20332;-66
2022/12/28 10:08:06;;;;;;;4.07;3.08;;;7.00;99.90;;;;;;7405489;19;20349;-66
2022/12/28 10:10:35;;;;;;;4.28;2.90;;;7.00;99.90;;;;;;7406441;19;19918;-66
2022/12/28 10:13:17;;;;;;;5.88;3.15;;;7.10;99.90;;;;;;7405915;19;19917;-67
2022/12/28 10:15:46;;;;;;;6.07;3.40;;;7.10;99.90;;;;;;7405293;19;19915;-67
2022/12/28 10:18:16;;;;;;;4.18;2.88;;;7.10;99.90;;;;;;7404667;19;19925;-66
2022/12/28 10:20:46;;;;;;;4.13;2.88;;;7.00;99.90;;;;;;7405084;19;19925;-66
2022/12/28 10:23:19;;;;;;;5.55;3.17;;;7.20;99.90;;;;;;7404707;19;19931;-66
2022/12/28 10:25:49;;;;;;;4.00;3.25;;;7.10;99.90;;;;;;7404830;19;19938;-66
2022/12/28 10:28:31;;;;;;;4.00;3.05;;;7.20;99.90;;;;;;7404425;19;20333;-66
2022/12/28 10:31:09;;;;;;;6.53;3.58;;;7.10;99.90;;;;;;7408274;19;19922;-66
2022/12/28 10:33:41;;;;;;;5.80;3.50;;;7.10;99.90;;;;;;7404781;19;20405;-66
2022/12/28 10:36:14;;;;;;;4.20;3.13;;;7.10;99.90;;;;;;7403110;19;19937;-66
2022/12/28 10:38:45;;;;;;;4.80;3.60;;;7.20;99.90;;;;;;7404757;19;19918;-66
2022/12/28 10:41:17;;;;;;;4.32;3.05;;;7.10;99.90;;;;;;7402334;19;19926;-66
2022/12/28 10:43:53;;;;;;;4.25;3.13;;;7.10;99.90;;;;;;7404215;19;19915;-66
2022/12/28 10:46:24;;;;;;;4.38;3.40;;;7.70;99.90;;;;;;7402943;19;19911;-67
2022/12/28 10:48:56;;;;;;;4.45;3.63;;;7.10;99.90;;;;;;7406968;19;20334;-66
2022/12/28 10:51:26;;;;;;;5.50;3.63;;;7.30;99.90;;;;;;7403575;19;19978;-66
2022/12/28 10:53:57;;;;;;;6.65;3.78;;;7.20;99.90;;;;;;7403647;19;20348;-66
2022/12/28 10:56:28;;;;;;;5.80;3.65;;;8.00;99.90;;;;;;7403875;19;19915;-66
2022/12/28 10:59:22;;;;;;;5.18;2.78;;;7.30;99.90;;;;;;7403651;19;19918;-67
2022/12/28 11:01:51;;;;;;;4.70;3.17;;;7.40;99.90;;;;;;7403574;19;19911;-67
2022/12/28 11:04:22;;;;;;;5.50;3.35;;;7.20;99.90;;;;;;7403186;19;19910;-66
2022/12/28 11:06:56;;;;;;;4.13;3.10;;;7.40;99.90;;;;;;7404063;19;19915;-67
2022/12/28 11:09:27;;;;;;;4.25;2.97;;;7.50;99.90;;;;;;7402724;19;19970;-66
2022/12/28 11:12:16;;;;;;;4.90;3.40;;;7.50;99.90;;;;;;7404062;19;19919;-67
2022/12/28 11:14:48;;;;;;;6.03;3.38;;;7.40;99.90;;;;;;7403376;19;19929;-67
2022/12/28 11:17:21;;;;;;;4.43;2.58;;;7.40;99.90;;;;;;7403520;19;19986;-68
2022/12/28 11:19:53;;;;;;;5.63;3.33;;;7.80;99.90;;;;;;7403097;19;19926;-66
2022/12/28 11:22:29;;;;;;;4.10;2.97;;;7.40;99.90;;;;;;7403265;19;19917;-66
2022/12/28 11:25:02;;;;;;;5.45;3.05;;;7.50;99.90;;;;;;7400882;19;19936;-66
2022/12/28 11:27:31;;;;;;;6.07;3.03;;;7.40;99.90;;;;;;7403182;19;19915;-66
2022/12/28 11:30:04;;;;;;;4.22;3.13;;;7.50;99.90;;;;;;7402737;19;19919;-67
2022/12/28 11:32:39;;;;;;;3.65;2.42;;;7.60;99.90;;;;;;7402620;19;19922;-67
2022/12/28 11:35:18;;;;;;;3.58;2.50;;;7.50;99.90;;;;;;7402012;19;19954;-66
2022/12/28 11:37:51;;;;;;;;;;;7.50;99.90;;;;;;7405271;19;19915;-67
2022/12/28 11:40:49;;;;;;;3.92;2.60;;;7.40;99.90;;;;;;7402657;19;19921;-67
2022/12/28 11:43:52;;;;;;;3.35;2.42;;;7.40;99.90;;;;;;7402052;19;19948;-67
2022/12/28 11:46:43;;;;;;;3.17;2.38;;;7.60;99.90;;;;;;7400316;19;19928;-67
2022/12/28 11:49:28;;;;;;;2.83;2.20;;;7.50;99.90;;;;;;7401573;19;19915;-67
2022/12/28 11:52:32;;;;;;;3.45;2.28;;;7.50;99.90;;;;;;7402249;19;19918;-67
2022/12/28 11:55:36;;;;;;;2.10;1.60;;;7.50;99.90;;;;;;7409464;19;20018;-67
2022/12/28 11:58:43;;;;;;;3.00;2.10;;;7.40;99.90;;;;;;7409765;19;19907;-68
2022/12/28 12:01:35;;;;;;;2.13;1.63;;;7.50;99.90;;;;;;7405208;19;19963;-67
2022/12/28 12:04:28;;;;;;;2.45;1.73;;;8.10;99.90;;;;;;7407947;19;19918;-67
2022/12/28 12:07:42;;;;;;;2.55;1.60;;;7.50;99.90;;;;;;7408511;19;19970;-67
2022/12/28 12:10:32;;;;;;;2.80;1.73;;;7.60;99.90;;;;;;7406775;19;19922;-67
2022/12/28 12:13:04;;;;;;;2.33;1.38;;;7.50;99.90;;;;;;7408192;19;20240;-66
2022/12/28 12:15:40;;;;;;;1.60;1.20;;;7.50;99.90;;;;;;7408197;19;20364;-67
2022/12/28 12:18:19;;;;;;;1.60;1.40;;;7.50;99.90;;;;;;7408597;19;20349;-66
2022/12/28 12:20:57;;;;;;;2.00;1.60;;;7.60;99.90;;;;;;7407818;19;19934;-66
2022/12/28 12:23:39;;;;;;;2.88;1.45;;;7.50;99.90;;;;;;7408457;19;19917;-66
2022/12/28 12:26:26;;;;;;;2.28;1.35;;;7.30;99.90;;;;;;7407932;19;20372;-66
2022/12/28 12:29:00;;;;;;;3.00;1.40;;;7.50;99.90;;;;;;7408300;19;20264;-67
2022/12/28 12:31:32;;;;;;;3.05;1.50;;;7.40;99.90;;;;;;7408219;19;19914;-67
2022/12/28 12:34:08;;;;;;;2.65;2.00;;;7.60;99.90;;;;;;7407306;19;19914;-66
2022/12/28 12:37:15;;;;;;;2.97;1.70;;;7.50;99.90;;;;;;7405194;19;19994;-66
2022/12/28 12:39:58;;;;;;;;;;;7.40;99.90;;;;;;7408842;19;19923;-66
2022/12/28 12:42:38;;;;;;;1.67;1.52;;;7.60;99.90;;;;;;7406972;19;20549;-66
2022/12/28 12:45:18;;;;;;;3.53;1.75;;;7.60;99.90;;;;;;7406640;19;19986;-67
2022/12/28 12:48:08;;;;;;;2.30;1.75;;;7.50;99.90;;;;;;7407787;19;19918;-67
2022/12/28 12:50:56;;;;;;;3.67;2.38;;;7.50;99.90;;;;;;7406023;19;19918;-67
2022/12/28 12:53:47;;;;;;;2.00;1.70;;;7.60;99.90;;;;;;7407974;19;19910;-66
2022/12/28 12:56:29;;;;;;;2.63;2.03;;;7.70;99.90;;;;;;7406992;19;20010;-66
2022/12/28 12:59:11;;;;;;;1.63;1.27;;;7.40;99.90;;;;;;7407847;19;19919;-65
2022/12/28 13:01:52;;;;;;;2.53;1.60;;;7.50;99.90;;;;;;7406740;19;19939;-67
2022/12/28 13:04:25;;;;;;;2.58;1.65;;;5.50;99.90;;;;;;7405288;19;20325;-66
2022/12/28 13:06:59;;;;;;;3.70;1.60;;;7.40;99.90;;;;;;7405450;19;19919;-66
2022/12/28 13:09:34;;;;;;;1.50;1.20;;;7.50;99.90;;;;;;7405897;19;20344;-65
2022/12/28 13:12:04;;;;;;;2.25;1.60;;;7.50;99.90;;;;;;7406964;19;19925;-65
2022/12/28 13:14:34;;;;;;;1.35;1.13;;;7.40;99.90;;;;;;7406837;19;19919;-65
2022/12/28 13:17:03;;;;;;;2.05;1.38;;;7.50;99.90;;;;;;7405127;19;19906;-65
2022/12/28 13:19:32;;;;;;;2.70;1.60;;;7.60;99.90;;;;;;7406320;19;19919;-65
2022/12/28 13:22:01;;;;;;;2.90;1.80;;;7.50;99.90;;;;;;7407065;19;19921;-66
2022/12/28 13:24:37;;;;;;;2.28;1.40;;;7.60;99.90;;;;;;7405187;19;20283;-66
2022/12/28 13:27:20;;;;;;;2.05;1.40;;;7.50;99.90;;;;;;7407556;19;19929;-66
2022/12/28 13:29:53;;;;;;;1.85;1.50;;;7.40;99.90;;;;;;7406087;19;19921;-66
2022/12/28 13:32:27;;;;;;;1.60;1.30;;;7.40;99.90;;;;;;7406358;19;19918;-65
2022/12/28 13:34:56;;;;;;;1.95;1.50;;;7.50;99.90;;;;;;7406111;19;20264;-66
2022/12/28 13:37:25;;;;;;;1.35;1.10;;;7.40;99.90;;;;;;7406448;19;19974;-66
2022/12/28 13:40:16;;;;;;;2.30;1.33;;;7.50;99.90;;;;;;7405946;19;19923;-66
2022/12/28 13:42:54;;;;;;;1.70;1.40;;;7.50;99.90;;;;;;7406057;19;19919;-66
2022/12/28 13:45:24;;;;;;;2.25;1.30;;;7.40;99.90;;;;;;7404827;19;19919;-66
2022/12/28 13:47:55;;;;;;;1.90;1.60;;;7.30;99.90;;;;;;7406310;19;19911;-66
2022/12/28 13:50:28;;;;;;;2.58;1.23;;;7.40;99.90;;;;;;7404155;19;19923;-66
2022/12/28 13:53:00;;;;;;;1.77;1.15;;;7.40;99.90;;;;;;7404885;19;19953;-66
2022/12/28 13:55:38;;;;;;;4.72;1.23;;;7.60;99.90;;;;;;7405868;19;20385;-65
2022/12/28 13:58:11;;;;;;;3.65;1.10;;;7.50;99.90;;;;;;7407495;19;19919;-65
2022/12/28 14:00:45;;;;;;;2.60;1.13;;;8.20;99.90;;;;;;7405661;19;19919;-66